Terminal Aerodrome Forecast
Issued by NWS

Home | Current Version | Previous Version | Text Only | Print | Product List | Glossary Off
Versions: 1 2 3 4 5 6 7 8 9 10 11 12 13 14 15

284
FTUS43 KICT 141739
TAFCNU
TAF
KCNU 141739Z 1418/1518 33008KT P6SM BKN045
     FM142100 33005KT P6SM SCT040
     FM142300 VRB03KT P6SM OVC080
     FM150800 31005KT P6SM BKN025
     FM151500 28005KT P6SM BKN035
     FM151700 26007KT P6SM SCT040=

USA.gov is the U.S. government's official web portal to all federal, state and local government web resources and services.